createdAt,value
2023-07-17T00:01:38.802Z,3.90
2023-07-17T00:10:31.034Z,3.97
2023-07-17T00:15:11.113Z,3.33
2023-07-17T00:19:12.761Z,3.63
2023-07-17T00:23:33.414Z,3.22
2023-07-17T00:28:02.062Z,4.00
2023-07-17T00:32:31.586Z,4.38
2023-07-17T00:37:04.701Z,3.40
2023-07-17T00:41:46.818Z,3.33
2023-07-17T00:46:44.894Z,3.40
2023-07-17T00:51:18.018Z,3.70
2023-07-17T00:55:34.383Z,3.63
2023-07-17T00:59:51.857Z,3.97
2023-07-17T01:04:30.288Z,3.88
2023-07-17T01:08:54.385Z,3.88
2023-07-17T01:12:58.611Z,3.15
2023-07-17T01:17:46.981Z,4.00
2023-07-17T01:22:45.309Z,4.20
2023-07-17T01:27:01.873Z,4.03
2023-07-17T01:36:00.297Z,3.80
2023-07-17T01:40:24.190Z,4.20
2023-07-17T01:49:45.863Z,3.85
2023-07-17T01:54:17.345Z,4.07
2023-07-17T01:58:51.217Z,3.75
2023-07-17T02:03:38.594Z,4.55
2023-07-17T02:08:18.351Z,4.07
2023-07-17T02:12:32.920Z,3.50
2023-07-17T02:16:51.049Z,4.78
2023-07-17T02:21:45.630Z,3.80
2023-07-17T02:26:52.670Z,4.43
2023-07-17T02:31:15.926Z,3.92
2023-07-17T02:35:36.721Z,4.07
2023-07-17T02:40:21.127Z,3.42
2023-07-17T02:45:29.517Z,4.10
2023-07-17T02:50:06.357Z,3.93
2023-07-17T02:54:18.880Z,3.90
2023-07-17T02:58:38.274Z,4.38
2023-07-17T03:03:48.224Z,5.40
2023-07-17T03:08:16.598Z,4.85
2023-07-17T03:18:34.911Z,3.78
2023-07-17T03:23:00.464Z,4.35
2023-07-17T03:32:32.276Z,4.28
2023-07-17T03:36:41.573Z,5.30
2023-07-17T03:42:46.873Z,4.63
2023-07-17T04:05:10.767Z,5.05
2023-07-17T04:09:47.558Z,4.93
2023-07-17T04:14:37.565Z,4.00
2023-07-17T04:19:38.310Z,4.03
2023-07-17T04:24:04.176Z,5.05
2023-07-17T04:28:54.689Z,3.65
2023-07-17T04:32:59.675Z,4.87
2023-07-17T04:37:02.080Z,5.05
2023-07-17T04:41:08.971Z,6.07
2023-07-17T04:45:46.110Z,4.60
2023-07-17T04:50:01.173Z,4.57
2023-07-17T04:54:06.314Z,4.30
2023-07-17T04:58:08.576Z,4.18
2023-07-17T05:02:14.674Z,4.78
2023-07-17T05:06:29.819Z,4.25
2023-07-17T05:10:34.066Z,4.20
2023-07-17T05:14:45.987Z,4.18
2023-07-17T05:19:21.539Z,4.18
2023-07-17T05:23:56.338Z,4.15
2023-07-17T05:28:16.145Z,4.20
2023-07-17T05:32:29.269Z,4.13
2023-07-17T05:36:38.617Z,4.68
2023-07-17T05:40:54.540Z,4.30
2023-07-17T05:45:23.251Z,5.20
2023-07-17T05:49:30.137Z,3.80
2023-07-17T05:53:48.183Z,4.03
2023-07-17T05:57:51.863Z,4.63
2023-07-17T06:01:55.114Z,4.93
2023-07-17T06:06:10.579Z,4.40
2023-07-17T06:10:17.239Z,4.40
2023-07-17T06:14:22.520Z,5.10
2023-07-17T06:18:27.425Z,4.78
2023-07-17T06:22:32.011Z,4.47
2023-07-17T06:26:39.502Z,4.57
2023-07-17T06:30:54.372Z,4.00
2023-07-17T06:35:03.943Z,4.95
2023-07-17T06:39:56.900Z,4.60
2023-07-17T06:44:08.440Z,5.10
2023-07-17T06:48:38.535Z,5.40
2023-07-17T07:04:48.260Z,5.20
2023-07-17T07:09:18.462Z,9.43
2023-07-17T07:13:22.405Z,5.85
2023-07-17T07:17:35.983Z,4.88
2023-07-17T07:21:42.304Z,5.28
2023-07-17T07:25:55.199Z,5.75
2023-07-17T07:29:59.776Z,5.10
2023-07-17T07:34:12.391Z,5.13
2023-07-17T07:38:35.193Z,5.70
2023-07-17T07:42:44.994Z,6.32
2023-07-17T07:46:47.085Z,6.35
2023-07-17T07:50:53.097Z,6.55
2023-07-17T07:55:10.929Z,6.47
2023-07-17T07:59:29.815Z,6.40
2023-07-17T08:03:33.086Z,6.53
2023-07-17T08:07:51.778Z,6.32
2023-07-17T08:16:30.284Z,6.85
2023-07-17T08:20:42.253Z,6.93
2023-07-17T08:29:28.475Z,7.00
2023-07-17T08:33:31.086Z,7.25
2023-07-17T08:37:39.630Z,7.28
2023-07-17T08:42:11.576Z,10.35
2023-07-17T08:46:17.651Z,10.90
2023-07-17T08:50:54.301Z,9.63
2023-07-17T08:55:03.475Z,12.73
2023-07-17T08:59:12.618Z,13.02
2023-07-17T09:03:52.741Z,13.57
2023-07-17T09:08:07.307Z,12.00
2023-07-17T09:12:33.812Z,13.05
2023-07-17T09:16:50.595Z,12.25
2023-07-17T09:21:07.060Z,11.30
2023-07-17T09:25:32.673Z,9.77
2023-07-17T09:29:52.355Z,8.70
2023-07-17T09:34:06.409Z,9.40
2023-07-17T09:38:16.749Z,8.90
2023-07-17T09:48:27.305Z,7.13
2023-07-17T09:52:32.787Z,6.68
2023-07-17T09:56:40.178Z,9.40
2023-07-17T10:00:52.818Z,7.32
2023-07-17T10:09:31.861Z,8.00
2023-07-17T10:13:53.181Z,8.88
2023-07-17T10:18:38.573Z,6.88
2023-07-17T10:23:29.692Z,7.00
2023-07-17T10:28:13.143Z,7.15
2023-07-17T10:33:09.212Z,7.50
2023-07-17T10:37:32.199Z,8.32
2023-07-17T10:41:46.120Z,7.25
2023-07-17T10:46:29.490Z,6.32
2023-07-17T10:51:07.064Z,6.50
2023-07-17T11:02:07.100Z,7.82
2023-07-17T11:11:15.717Z,6.03
2023-07-17T11:15:25.982Z,5.90
2023-07-17T11:25:30.447Z,5.80
2023-07-17T11:30:06.100Z,6.13
2023-07-17T11:34:41.490Z,6.10
2023-07-17T11:39:14.059Z,7.33
2023-07-17T11:43:53.400Z,7.00
2023-07-17T11:53:11.279Z,6.40
2023-07-17T11:57:34.761Z,5.70
2023-07-17T12:01:42.037Z,6.40
2023-07-17T12:05:50.582Z,5.97
2023-07-17T12:09:57.731Z,5.93
2023-07-17T12:14:03.051Z,5.72
2023-07-17T12:18:10.576Z,7.10
2023-07-17T12:26:42.923Z,7.07
2023-07-17T12:30:50.143Z,6.00
2023-07-17T12:35:02.361Z,6.32
2023-07-17T12:39:23.684Z,7.20
2023-07-17T12:52:45.666Z,5.93
2023-07-17T12:56:56.998Z,6.15
2023-07-17T13:01:05.936Z,5.68
2023-07-17T13:05:10.901Z,6.18
2023-07-17T13:09:17.960Z,6.07
2023-07-17T13:13:22.559Z,6.20
2023-07-17T13:17:46.545Z,5.63
2023-07-17T13:22:18.831Z,5.90
2023-07-17T13:26:28.112Z,6.10
2023-07-17T13:30:31.713Z,5.70
2023-07-17T13:34:37.483Z,5.60
2023-07-17T13:38:49.185Z,5.68
2023-07-17T13:42:52.095Z,6.88
2023-07-17T13:47:04.694Z,6.40
2023-07-17T13:51:09.658Z,6.35
2023-07-17T13:55:18.380Z,5.47
2023-07-17T13:59:23.493Z,6.13
2023-07-17T14:03:38.661Z,6.18
2023-07-17T14:07:59.934Z,6.85
2023-07-17T14:12:05.396Z,6.13
2023-07-17T14:16:11.956Z,5.70
2023-07-17T14:20:15.083Z,6.63
2023-07-17T14:24:22.333Z,6.18
2023-07-17T14:32:28.079Z,6.25
2023-07-17T14:36:33.508Z,5.43
2023-07-17T14:40:36.290Z,5.68
2023-07-17T14:44:45.447Z,5.13
2023-07-17T14:49:05.234Z,5.72
2023-07-17T14:58:12.273Z,5.65
2023-07-17T15:02:33.633Z,5.65
2023-07-17T15:07:02.900Z,5.18
2023-07-17T15:11:31.921Z,6.25
2023-07-17T15:15:51.878Z,6.80
2023-07-17T15:25:05.669Z,6.10
2023-07-17T15:29:27.592Z,5.40
2023-07-17T15:34:07.769Z,6.85
2023-07-17T15:38:43.575Z,5.97
2023-07-17T15:43:09.095Z,5.95
2023-07-17T15:47:51.081Z,5.88
2023-07-17T16:01:47.595Z,5.70
2023-07-17T16:11:43.244Z,5.32
2023-07-17T16:40:41.336Z,5.15
2023-07-17T16:57:07.262Z,5.78
2023-07-17T17:08:39.556Z,5.78
2023-07-17T17:19:37.023Z,6.65
2023-07-17T17:25:02.460Z,7.10
2023-07-17T17:30:31.534Z,6.35
2023-07-17T17:35:22.578Z,6.88
2023-07-17T17:40:17.701Z,7.03
2023-07-17T17:49:23.098Z,7.65
2023-07-17T17:53:40.110Z,7.93
2023-07-17T17:58:23.147Z,7.78
2023-07-17T18:07:38.208Z,7.63
2023-07-17T18:12:17.895Z,8.60
2023-07-17T18:21:38.484Z,8.20
2023-07-17T18:25:46.536Z,8.27
2023-07-17T18:34:31.092Z,7.95
2023-07-17T18:38:45.367Z,7.78
2023-07-17T18:43:27.462Z,7.38
2023-07-17T18:52:32.136Z,9.15
2023-07-17T18:56:33.484Z,8.65
2023-07-17T19:00:39.761Z,7.63
2023-07-17T19:04:58.629Z,7.75
2023-07-17T19:09:13.527Z,7.88
2023-07-17T19:13:29.670Z,7.35
2023-07-17T19:17:39.881Z,7.25
2023-07-17T19:22:10.274Z,8.68
2023-07-17T19:26:29.195Z,5.88
2023-07-17T19:30:47.728Z,6.53
2023-07-17T19:34:57.162Z,6.00
2023-07-17T19:39:24.745Z,5.53
2023-07-17T19:44:14.261Z,4.97
2023-07-17T19:48:19.632Z,5.47
2023-07-17T19:53:06.673Z,5.07
2023-07-17T19:57:33.931Z,4.82
2023-07-17T20:01:56.561Z,5.38
2023-07-17T20:06:23.869Z,5.15
2023-07-17T20:10:57.191Z,6.40
2023-07-17T20:20:20.477Z,5.35
2023-07-17T20:24:41.453Z,4.78
2023-07-17T20:28:47.950Z,5.85
2023-07-17T20:33:24.150Z,4.30
2023-07-17T20:47:25.084Z,4.05
2023-07-17T20:52:01.116Z,4.38
2023-07-17T20:56:34.907Z,4.05
2023-07-17T21:05:31.674Z,5.07
2023-07-17T21:14:43.559Z,4.97
2023-07-17T21:19:14.202Z,4.28
2023-07-17T21:23:52.520Z,5.65
2023-07-17T21:28:26.124Z,4.72
2023-07-17T21:33:17.772Z,5.57
2023-07-17T21:38:04.240Z,4.10
2023-07-17T21:42:34.826Z,3.97
2023-07-17T21:51:45.329Z,3.80
2023-07-17T21:56:05.475Z,4.57
2023-07-17T22:06:51.108Z,4.30
2023-07-17T22:17:37.805Z,4.60
2023-07-17T22:22:32.030Z,4.82
2023-07-17T22:33:01.214Z,4.00
2023-07-17T22:43:37.124Z,5.13
2023-07-17T22:48:45.662Z,5.05
2023-07-17T22:58:41.637Z,4.10
2023-07-17T23:03:18.282Z,4.45
2023-07-17T23:08:21.683Z,4.15
2023-07-17T23:13:05.439Z,6.03
2023-07-17T23:17:42.022Z,4.25
2023-07-17T23:22:28.680Z,4.30
2023-07-17T23:32:31.419Z,4.97
2023-07-17T23:37:39.342Z,4.47
2023-07-17T23:42:37.686Z,5.10
2023-07-17T23:47:27.800Z,4.30
2023-07-17T23:53:03.913Z,4.40
